Terminal Aerodrome Forecast
Issued by NWS

Home | Current Version | Previous Version | Text Only | Print | Product List | Glossary On
Versions: 1 2 3 4 5 6 7 8 9 10 11 12 13 14 15 16 17
217
FTUS41 KBGM 301120
TAFITH
TAF
KITH 301120Z 3012/3112 04003KT P6SM -SHRA OVC200
     FM301500 02006KT P6SM BKN070 OVC100
      TEMPO 3017/3020 6SM -TSRA SCT035CB OVC070
     FM310400 11005KT P6SM -SHRA SCT025 OVC100
     FM310800 10011G18KT 2SM TSRA BR OVC012CB=

USA.gov is the U.S. government's official web portal to all federal, state and local government web resources and services.